sensor_id;sensor_type;location;lat;lon;timestamp;P1;durP1;ratioP1;P2;durP2;ratioP2
42760;SDS011;31672;47.638;19.026;2023-02-15T00:01:12;42.20;;;18.03;;
42760;SDS011;31672;47.638;19.026;2023-02-15T00:06:16;37.30;;;14.63;;
42760;SDS011;31672;47.638;19.026;2023-02-15T00:11:19;34.73;;;15.83;;
42760;SDS011;31672;47.638;19.026;2023-02-15T00:16:42;30.92;;;13.43;;
42760;SDS011;31672;47.638;19.026;2023-02-15T00:21:46;36.73;;;16.13;;
42760;SDS011;31672;47.638;19.026;2023-02-15T00:26:52;45.13;;;16.43;;
42760;SDS011;31672;47.638;19.026;2023-02-15T00:31:55;45.20;;;18.77;;
42760;SDS011;31672;47.638;19.026;2023-02-15T00:36:58;33.57;;;14.00;;
42760;SDS011;31672;47.638;19.026;2023-02-15T00:42:01;30.43;;;13.00;;
42760;SDS011;31672;47.638;19.026;2023-02-15T00:47:04;33.83;;;14.23;;
42760;SDS011;31672;47.638;19.026;2023-02-15T00:52:07;31.30;;;13.70;;
42760;SDS011;31672;47.638;19.026;2023-02-15T00:57:10;31.93;;;13.67;;
42760;SDS011;31672;47.638;19.026;2023-02-15T01:02:13;31.63;;;12.93;;
42760;SDS011;31672;47.638;19.026;2023-02-15T01:07:16;35.83;;;15.07;;
42760;SDS011;31672;47.638;19.026;2023-02-15T01:12:19;33.20;;;14.60;;
42760;SDS011;31672;47.638;19.026;2023-02-15T01:17:22;30.83;;;13.57;;
42760;SDS011;31672;47.638;19.026;2023-02-15T01:22:25;31.33;;;12.93;;
42760;SDS011;31672;47.638;19.026;2023-02-15T01:27:28;38.63;;;16.33;;
42760;SDS011;31672;47.638;19.026;2023-02-15T01:32:32;30.47;;;13.23;;
42760;SDS011;31672;47.638;19.026;2023-02-15T01:37:35;38.87;;;15.63;;
42760;SDS011;31672;47.638;19.026;2023-02-15T01:42:39;30.43;;;13.77;;
42760;SDS011;31672;47.638;19.026;2023-02-15T01:47:44;30.90;;;13.80;;
42760;SDS011;31672;47.638;19.026;2023-02-15T01:58:39;36.80;;;18.27;;
42760;SDS011;31672;47.638;19.026;2023-02-15T02:09:00;29.73;;;15.27;;
42760;SDS011;31672;47.638;19.026;2023-02-15T02:14:04;30.60;;;13.37;;
42760;SDS011;31672;47.638;19.026;2023-02-15T02:19:26;35.37;;;14.13;;
42760;SDS011;31672;47.638;19.026;2023-02-15T02:41:18;39.07;;;15.83;;
42760;SDS011;31672;47.638;19.026;2023-02-15T02:46:33;37.10;;;17.77;;
42760;SDS011;31672;47.638;19.026;2023-02-15T03:08:45;47.07;;;21.83;;
42760;SDS011;31672;47.638;19.026;2023-02-15T03:14:19;47.40;;;19.97;;
42760;SDS011;31672;47.638;19.026;2023-02-15T03:19:23;54.90;;;21.73;;
42760;SDS011;31672;47.638;19.026;2023-02-15T03:24:35;49.80;;;22.80;;
42760;SDS011;31672;47.638;19.026;2023-02-15T03:29:55;50.05;;;21.08;;
42760;SDS011;31672;47.638;19.026;2023-02-15T03:35:01;62.97;;;28.47;;
42760;SDS011;31672;47.638;19.026;2023-02-15T03:40:15;43.87;;;20.17;;
42760;SDS011;31672;47.638;19.026;2023-02-15T03:45:47;51.83;;;20.83;;
42760;SDS011;31672;47.638;19.026;2023-02-15T03:51:00;45.40;;;19.60;;
42760;SDS011;31672;47.638;19.026;2023-02-15T03:56:28;47.67;;;24.10;;
42760;SDS011;31672;47.638;19.026;2023-02-15T04:01:36;41.40;;;18.37;;
42760;SDS011;31672;47.638;19.026;2023-02-15T04:07:01;47.23;;;21.87;;
42760;SDS011;31672;47.638;19.026;2023-02-15T04:12:05;43.70;;;21.53;;
42760;SDS011;31672;47.638;19.026;2023-02-15T04:17:09;55.33;;;23.70;;
42760;SDS011;31672;47.638;19.026;2023-02-15T04:22:12;53.83;;;24.63;;
42760;SDS011;31672;47.638;19.026;2023-02-15T04:27:33;45.93;;;18.97;;
42760;SDS011;31672;47.638;19.026;2023-02-15T04:32:37;55.60;;;23.90;;
42760;SDS011;31672;47.638;19.026;2023-02-15T04:37:41;35.90;;;18.00;;
42760;SDS011;31672;47.638;19.026;2023-02-15T04:42:46;42.37;;;18.40;;
42760;SDS011;31672;47.638;19.026;2023-02-15T04:47:51;50.60;;;21.33;;
42760;SDS011;31672;47.638;19.026;2023-02-15T04:52:54;38.53;;;16.47;;
42760;SDS011;31672;47.638;19.026;2023-02-15T04:57:57;35.67;;;15.70;;
42760;SDS011;31672;47.638;19.026;2023-02-15T05:03:00;30.87;;;13.60;;
42760;SDS011;31672;47.638;19.026;2023-02-15T05:08:03;34.87;;;14.70;;
42760;SDS011;31672;47.638;19.026;2023-02-15T05:13:06;41.53;;;17.17;;
42760;SDS011;31672;47.638;19.026;2023-02-15T05:18:09;26.43;;;13.10;;
42760;SDS011;31672;47.638;19.026;2023-02-15T05:23:12;29.90;;;14.97;;
42760;SDS011;31672;47.638;19.026;2023-02-15T05:28:15;36.47;;;16.33;;
42760;SDS011;31672;47.638;19.026;2023-02-15T05:33:22;32.47;;;16.47;;
42760;SDS011;31672;47.638;19.026;2023-02-15T05:38:25;36.53;;;15.53;;
42760;SDS011;31672;47.638;19.026;2023-02-15T05:43:28;47.57;;;21.60;;
42760;SDS011;31672;47.638;19.026;2023-02-15T05:48:31;37.23;;;15.77;;
42760;SDS011;31672;47.638;19.026;2023-02-15T05:53:36;35.30;;;15.27;;
42760;SDS011;31672;47.638;19.026;2023-02-15T05:58:40;48.20;;;21.80;;
42760;SDS011;31672;47.638;19.026;2023-02-15T06:03:44;50.87;;;26.03;;
42760;SDS011;31672;47.638;19.026;2023-02-15T06:08:48;41.07;;;18.00;;
42760;SDS011;31672;47.638;19.026;2023-02-15T06:13:52;41.33;;;17.50;;
42760;SDS011;31672;47.638;19.026;2023-02-15T06:18:54;36.67;;;16.90;;
42760;SDS011;31672;47.638;19.026;2023-02-15T06:23:57;33.40;;;16.17;;
42760;SDS011;31672;47.638;19.026;2023-02-15T06:29:01;48.70;;;22.70;;
42760;SDS011;31672;47.638;19.026;2023-02-15T06:34:05;37.50;;;17.37;;
42760;SDS011;31672;47.638;19.026;2023-02-15T06:39:08;46.40;;;21.87;;
42760;SDS011;31672;47.638;19.026;2023-02-15T06:44:11;57.60;;;25.50;;
42760;SDS011;31672;47.638;19.026;2023-02-15T06:49:14;62.83;;;30.57;;
42760;SDS011;31672;47.638;19.026;2023-02-15T06:54:20;70.63;;;31.07;;
42760;SDS011;31672;47.638;19.026;2023-02-15T06:59:23;68.37;;;35.73;;
42760;SDS011;31672;47.638;19.026;2023-02-15T07:04:26;69.57;;;35.73;;
42760;SDS011;31672;47.638;19.026;2023-02-15T07:09:31;74.43;;;38.43;;
42760;SDS011;31672;47.638;19.026;2023-02-15T07:14:34;93.13;;;49.40;;
42760;SDS011;31672;47.638;19.026;2023-02-15T07:19:37;71.37;;;38.50;;
42760;SDS011;31672;47.638;19.026;2023-02-15T07:24:40;66.57;;;35.33;;
42760;SDS011;31672;47.638;19.026;2023-02-15T07:29:43;60.37;;;32.07;;
42760;SDS011;31672;47.638;19.026;2023-02-15T07:34:46;68.70;;;39.73;;
42760;SDS011;31672;47.638;19.026;2023-02-15T07:39:49;62.37;;;34.37;;
42760;SDS011;31672;47.638;19.026;2023-02-15T07:44:52;66.37;;;32.10;;
42760;SDS011;31672;47.638;19.026;2023-02-15T07:49:55;152.87;;;62.63;;
42760;SDS011;31672;47.638;19.026;2023-02-15T07:54:58;117.00;;;44.73;;
42760;SDS011;31672;47.638;19.026;2023-02-15T08:00:02;55.67;;;29.57;;
42760;SDS011;31672;47.638;19.026;2023-02-15T08:05:07;41.23;;;25.63;;
42760;SDS011;31672;47.638;19.026;2023-02-15T08:10:10;56.60;;;32.80;;
42760;SDS011;31672;47.638;19.026;2023-02-15T08:15:33;61.33;;;36.67;;
42760;SDS011;31672;47.638;19.026;2023-02-15T08:20:36;49.63;;;30.70;;
42760;SDS011;31672;47.638;19.026;2023-02-15T08:25:39;50.30;;;28.43;;
42760;SDS011;31672;47.638;19.026;2023-02-15T08:30:42;107.73;;;44.33;;
42760;SDS011;31672;47.638;19.026;2023-02-15T08:35:45;48.80;;;30.97;;
42760;SDS011;31672;47.638;19.026;2023-02-15T08:40:49;36.60;;;24.30;;
42760;SDS011;31672;47.638;19.026;2023-02-15T08:45:52;51.10;;;30.03;;
42760;SDS011;31672;47.638;19.026;2023-02-15T08:50:55;35.07;;;21.37;;
42760;SDS011;31672;47.638;19.026;2023-02-15T08:55:58;29.00;;;19.10;;
42760;SDS011;31672;47.638;19.026;2023-02-15T09:01:08;30.40;;;18.43;;
42760;SDS011;31672;47.638;19.026;2023-02-15T09:06:20;32.27;;;20.83;;
42760;SDS011;31672;47.638;19.026;2023-02-15T09:11:25;25.33;;;17.73;;
42760;SDS011;31672;47.638;19.026;2023-02-15T09:16:32;39.97;;;23.20;;
42760;SDS011;31672;47.638;19.026;2023-02-15T09:21:37;26.43;;;18.63;;
42760;SDS011;31672;47.638;19.026;2023-02-15T09:26:41;27.70;;;20.13;;
42760;SDS011;31672;47.638;19.026;2023-02-15T09:31:48;28.47;;;18.57;;
42760;SDS011;31672;47.638;19.026;2023-02-15T09:36:52;119.18;;;49.95;;
42760;SDS011;31672;47.638;19.026;2023-02-15T10:20:19;43.67;;;24.73;;
42760;SDS011;31672;47.638;19.026;2023-02-15T10:25:58;48.47;;;30.17;;
42760;SDS011;31672;47.638;19.026;2023-02-15T10:31:26;32.30;;;21.33;;
42760;SDS011;31672;47.638;19.026;2023-02-15T10:43:00;31.13;;;22.25;;
42760;SDS011;31672;47.638;19.026;2023-02-15T11:05:03;31.33;;;20.27;;
42760;SDS011;31672;47.638;19.026;2023-02-15T11:10:48;50.80;;;27.58;;
42760;SDS011;31672;47.638;19.026;2023-02-15T11:15:58;33.30;;;22.27;;
42760;SDS011;31672;47.638;19.026;2023-02-15T11:26:43;55.30;;;30.60;;
42760;SDS011;31672;47.638;19.026;2023-02-15T11:32:03;42.97;;;23.98;;
42760;SDS011;31672;47.638;19.026;2023-02-15T11:37:18;29.05;;;19.77;;
42760;SDS011;31672;47.638;19.026;2023-02-15T11:42:26;32.55;;;23.13;;
42760;SDS011;31672;47.638;19.026;2023-02-15T11:47:32;25.55;;;18.77;;
42760;SDS011;31672;47.638;19.026;2023-02-15T11:52:36;53.45;;;31.88;;
42760;SDS011;31672;47.638;19.026;2023-02-15T11:57:40;49.28;;;28.90;;
42760;SDS011;31672;47.638;19.026;2023-02-15T12:02:52;39.92;;;26.40;;
42760;SDS011;31672;47.638;19.026;2023-02-15T12:08:01;33.83;;;23.55;;
42760;SDS011;31672;47.638;19.026;2023-02-15T12:18:34;33.57;;;22.03;;
42760;SDS011;31672;47.638;19.026;2023-02-15T12:23:43;39.70;;;23.80;;
42760;SDS011;31672;47.638;19.026;2023-02-15T12:28:52;36.33;;;21.77;;
42760;SDS011;31672;47.638;19.026;2023-02-15T12:33:57;37.17;;;24.37;;
42760;SDS011;31672;47.638;19.026;2023-02-15T12:49:26;36.47;;;21.23;;
42760;SDS011;31672;47.638;19.026;2023-02-15T12:54:39;41.27;;;22.37;;
42760;SDS011;31672;47.638;19.026;2023-02-15T13:10:37;155.32;;;104.25;;
42760;SDS011;31672;47.638;19.026;2023-02-15T13:15:42;126.40;;;92.80;;
42760;SDS011;31672;47.638;19.026;2023-02-15T13:20:50;38.47;;;23.90;;
42760;SDS011;31672;47.638;19.026;2023-02-15T13:25:58;134.37;;;90.07;;
42760;SDS011;31672;47.638;19.026;2023-02-15T13:31:07;41.10;;;27.03;;
42760;SDS011;31672;47.638;19.026;2023-02-15T13:36:23;47.63;;;29.00;;
42760;SDS011;31672;47.638;19.026;2023-02-15T13:52:28;37.57;;;23.40;;
42760;SDS011;31672;47.638;19.026;2023-02-15T14:04:03;38.07;;;24.83;;
42760;SDS011;31672;47.638;19.026;2023-02-15T14:31:25;53.73;;;30.70;;
42760;SDS011;31672;47.638;19.026;2023-02-15T14:36:36;41.23;;;25.47;;
42760;SDS011;31672;47.638;19.026;2023-02-15T14:41:45;28.80;;;18.43;;
42760;SDS011;31672;47.638;19.026;2023-02-15T14:47:05;55.17;;;44.17;;
42760;SDS011;31672;47.638;19.026;2023-02-15T14:52:16;35.05;;;22.00;;
42760;SDS011;31672;47.638;19.026;2023-02-15T14:57:23;29.17;;;18.23;;
42760;SDS011;31672;47.638;19.026;2023-02-15T15:07:53;34.90;;;22.40;;
42760;SDS011;31672;47.638;19.026;2023-02-15T15:13:00;35.43;;;22.13;;
42760;SDS011;31672;47.638;19.026;2023-02-15T15:23:50;36.33;;;20.97;;
42760;SDS011;31672;47.638;19.026;2023-02-15T15:28:53;37.00;;;21.20;;
42760;SDS011;31672;47.638;19.026;2023-02-15T15:51:20;35.03;;;19.63;;
42760;SDS011;31672;47.638;19.026;2023-02-15T15:56:36;29.07;;;15.87;;
42760;SDS011;31672;47.638;19.026;2023-02-15T16:01:40;40.00;;;21.40;;
42760;SDS011;31672;47.638;19.026;2023-02-15T16:06:46;81.67;;;44.10;;
42760;SDS011;31672;47.638;19.026;2023-02-15T16:11:53;44.63;;;23.80;;
42760;SDS011;31672;47.638;19.026;2023-02-15T16:17:08;54.13;;;33.43;;
42760;SDS011;31672;47.638;19.026;2023-02-15T16:22:22;51.33;;;32.07;;
42760;SDS011;31672;47.638;19.026;2023-02-15T16:32:42;35.90;;;19.83;;
42760;SDS011;31672;47.638;19.026;2023-02-15T16:37:45;44.57;;;25.80;;
42760;SDS011;31672;47.638;19.026;2023-02-15T16:43:13;51.07;;;28.93;;
42760;SDS011;31672;47.638;19.026;2023-02-15T16:48:25;35.57;;;20.80;;
42760;SDS011;31672;47.638;19.026;2023-02-15T16:53:29;43.30;;;22.17;;
42760;SDS011;31672;47.638;19.026;2023-02-15T17:03:45;43.80;;;23.60;;
42760;SDS011;31672;47.638;19.026;2023-02-15T17:08:52;47.53;;;26.47;;
42760;SDS011;31672;47.638;19.026;2023-02-15T17:14:20;60.40;;;30.50;;
42760;SDS011;31672;47.638;19.026;2023-02-15T17:19:29;48.27;;;25.50;;
42760;SDS011;31672;47.638;19.026;2023-02-15T17:24:42;60.33;;;29.20;;
42760;SDS011;31672;47.638;19.026;2023-02-15T17:29:52;88.10;;;35.93;;
42760;SDS011;31672;47.638;19.026;2023-02-15T17:35:16;78.00;;;38.57;;
42760;SDS011;31672;47.638;19.026;2023-02-15T17:40:28;77.00;;;38.30;;
42760;SDS011;31672;47.638;19.026;2023-02-15T17:45:42;86.30;;;44.57;;
42760;SDS011;31672;47.638;19.026;2023-02-15T17:50:51;89.47;;;45.97;;
42760;SDS011;31672;47.638;19.026;2023-02-15T17:55:54;82.43;;;40.10;;
42760;SDS011;31672;47.638;19.026;2023-02-15T18:01:00;81.00;;;41.13;;
42760;SDS011;31672;47.638;19.026;2023-02-15T18:06:37;91.77;;;44.87;;
42760;SDS011;31672;47.638;19.026;2023-02-15T18:12:02;61.07;;;31.70;;
42760;SDS011;31672;47.638;19.026;2023-02-15T18:17:16;53.90;;;28.77;;
42760;SDS011;31672;47.638;19.026;2023-02-15T18:22:20;60.40;;;32.47;;
42760;SDS011;31672;47.638;19.026;2023-02-15T18:27:24;58.00;;;28.50;;
42760;SDS011;31672;47.638;19.026;2023-02-15T18:32:31;61.50;;;29.07;;
42760;SDS011;31672;47.638;19.026;2023-02-15T18:37:37;68.90;;;32.40;;
42760;SDS011;31672;47.638;19.026;2023-02-15T18:42:42;51.10;;;24.10;;
42760;SDS011;31672;47.638;19.026;2023-02-15T18:47:53;52.67;;;26.33;;
42760;SDS011;31672;47.638;19.026;2023-02-15T18:53:02;59.97;;;27.93;;
42760;SDS011;31672;47.638;19.026;2023-02-15T18:58:13;50.20;;;24.83;;
42760;SDS011;31672;47.638;19.026;2023-02-15T19:03:19;49.23;;;25.70;;
42760;SDS011;31672;47.638;19.026;2023-02-15T19:08:24;74.63;;;31.70;;
42760;SDS011;31672;47.638;19.026;2023-02-15T19:13:28;53.27;;;25.50;;
42760;SDS011;31672;47.638;19.026;2023-02-15T19:18:31;44.23;;;24.50;;
42760;SDS011;31672;47.638;19.026;2023-02-15T19:23:34;68.43;;;36.77;;
42760;SDS011;31672;47.638;19.026;2023-02-15T19:28:38;72.60;;;32.60;;
42760;SDS011;31672;47.638;19.026;2023-02-15T19:33:41;87.13;;;36.20;;
42760;SDS011;31672;47.638;19.026;2023-02-15T19:38:45;96.60;;;41.67;;
42760;SDS011;31672;47.638;19.026;2023-02-15T19:43:52;86.70;;;42.20;;
42760;SDS011;31672;47.638;19.026;2023-02-15T19:48:57;87.63;;;41.50;;
42760;SDS011;31672;47.638;19.026;2023-02-15T19:54:01;76.80;;;36.30;;
42760;SDS011;31672;47.638;19.026;2023-02-15T19:59:04;63.57;;;30.27;;
42760;SDS011;31672;47.638;19.026;2023-02-15T20:04:25;53.13;;;25.40;;
42760;SDS011;31672;47.638;19.026;2023-02-15T20:09:29;63.47;;;28.87;;
42760;SDS011;31672;47.638;19.026;2023-02-15T20:14:36;58.83;;;28.67;;
42760;SDS011;31672;47.638;19.026;2023-02-15T20:19:39;105.33;;;40.83;;
42760;SDS011;31672;47.638;19.026;2023-02-15T20:24:42;72.30;;;31.13;;
42760;SDS011;31672;47.638;19.026;2023-02-15T20:29:45;99.57;;;36.70;;
42760;SDS011;31672;47.638;19.026;2023-02-15T20:34:49;72.33;;;29.60;;
42760;SDS011;31672;47.638;19.026;2023-02-15T20:39:52;72.07;;;33.47;;
42760;SDS011;31672;47.638;19.026;2023-02-15T20:44:55;77.37;;;33.80;;
42760;SDS011;31672;47.638;19.026;2023-02-15T20:49:59;109.80;;;46.00;;
42760;SDS011;31672;47.638;19.026;2023-02-15T20:55:08;107.23;;;47.33;;
42760;SDS011;31672;47.638;19.026;2023-02-15T21:00:29;122.50;;;48.73;;
42760;SDS011;31672;47.638;19.026;2023-02-15T21:05:33;146.63;;;61.20;;
42760;SDS011;31672;47.638;19.026;2023-02-15T21:10:36;156.60;;;62.43;;
42760;SDS011;31672;47.638;19.026;2023-02-15T21:15:39;109.67;;;46.97;;
42760;SDS011;31672;47.638;19.026;2023-02-15T21:20:43;123.33;;;51.30;;
42760;SDS011;31672;47.638;19.026;2023-02-15T21:25:49;122.03;;;54.43;;
42760;SDS011;31672;47.638;19.026;2023-02-15T21:30:53;95.43;;;40.83;;
42760;SDS011;31672;47.638;19.026;2023-02-15T21:36:01;77.70;;;32.20;;
42760;SDS011;31672;47.638;19.026;2023-02-15T21:41:04;75.00;;;31.97;;
42760;SDS011;31672;47.638;19.026;2023-02-15T21:46:26;63.80;;;28.38;;
42760;SDS011;31672;47.638;19.026;2023-02-15T21:51:48;53.90;;;24.67;;
42760;SDS011;31672;47.638;19.026;2023-02-15T21:57:14;55.23;;;26.00;;
42760;SDS011;31672;47.638;19.026;2023-02-15T22:02:23;48.17;;;24.03;;
42760;SDS011;31672;47.638;19.026;2023-02-15T22:07:31;49.65;;;22.63;;
42760;SDS011;31672;47.638;19.026;2023-02-15T22:12:34;88.30;;;39.47;;
42760;SDS011;31672;47.638;19.026;2023-02-15T22:17:39;52.43;;;24.03;;
42760;SDS011;31672;47.638;19.026;2023-02-15T22:22:42;76.00;;;33.40;;
42760;SDS011;31672;47.638;19.026;2023-02-15T22:27:45;65.33;;;29.00;;
42760;SDS011;31672;47.638;19.026;2023-02-15T22:32:51;73.33;;;30.33;;
42760;SDS011;31672;47.638;19.026;2023-02-15T22:37:55;65.27;;;24.93;;
42760;SDS011;31672;47.638;19.026;2023-02-15T22:43:00;80.17;;;32.17;;
42760;SDS011;31672;47.638;19.026;2023-02-15T22:48:07;63.13;;;25.33;;
42760;SDS011;31672;47.638;19.026;2023-02-15T22:53:13;79.90;;;30.50;;
42760;SDS011;31672;47.638;19.026;2023-02-15T22:58:17;59.63;;;25.60;;
42760;SDS011;31672;47.638;19.026;2023-02-15T23:03:26;70.03;;;28.80;;
42760;SDS011;31672;47.638;19.026;2023-02-15T23:08:33;81.70;;;28.50;;
42760;SDS011;31672;47.638;19.026;2023-02-15T23:13:36;91.60;;;34.77;;
42760;SDS011;31672;47.638;19.026;2023-02-15T23:18:40;74.17;;;25.87;;
42760;SDS011;31672;47.638;19.026;2023-02-15T23:23:49;81.50;;;32.30;;
42760;SDS011;31672;47.638;19.026;2023-02-15T23:28:59;96.83;;;32.03;;
42760;SDS011;31672;47.638;19.026;2023-02-15T23:34:13;86.70;;;31.07;;
42760;SDS011;31672;47.638;19.026;2023-02-15T23:39:27;66.65;;;27.15;;
42760;SDS011;31672;47.638;19.026;2023-02-15T23:44:48;87.65;;;29.20;;
42760;SDS011;31672;47.638;19.026;2023-02-15T23:49:52;98.63;;;35.77;;
42760;SDS011;31672;47.638;19.026;2023-02-15T23:54:55;79.37;;;29.20;;
42760;SDS011;31672;47.638;19.026;2023-02-15T23:59:58;98.60;;;35.60;;
